createdAt,value
2022-10-18T00:00:25.711Z,11.43
2022-10-18T00:02:53.297Z,10.30
2022-10-18T00:05:20.919Z,10.07
2022-10-18T00:07:48.539Z,10.10
2022-10-18T00:10:16.296Z,9.27
2022-10-18T00:12:44.052Z,8.35
2022-10-18T00:15:12.510Z,8.13
2022-10-18T00:17:41.486Z,8.43
2022-10-18T00:20:10.500Z,9.50
2022-10-18T00:22:39.870Z,9.25
2022-10-18T00:25:08.867Z,10.20
2022-10-18T00:27:37.095Z,10.55
2022-10-18T00:30:05.546Z,11.32
2022-10-18T00:32:37.246Z,10.73
2022-10-18T00:35:07.748Z,11.20
2022-10-18T00:37:36.202Z,9.85
2022-10-18T00:40:03.942Z,11.32
2022-10-18T00:42:34.541Z,10.73
2022-10-18T00:45:19.456Z,10.60
2022-10-18T00:47:51.604Z,11.32
2022-10-18T00:50:21.743Z,10.30
2022-10-18T00:52:53.297Z,10.68
2022-10-18T00:55:21.538Z,10.98
2022-10-18T00:57:50.222Z,10.88
2022-10-18T01:00:18.708Z,10.77
2022-10-18T01:02:47.797Z,10.50
2022-10-18T01:05:17.857Z,10.75
2022-10-18T01:08:02.389Z,9.48
2022-10-18T01:10:35.941Z,9.82
2022-10-18T01:13:19.879Z,10.50
2022-10-18T01:15:59.053Z,9.45
2022-10-18T01:18:31.902Z,10.05
2022-10-18T01:21:10.047Z,9.20
2022-10-18T01:24:03.432Z,10.50
2022-10-18T01:26:44.455Z,10.25
2022-10-18T01:29:24.132Z,9.90
2022-10-18T01:31:59.577Z,9.55
2022-10-18T01:34:29.949Z,10.35
2022-10-18T01:36:58.598Z,9.82
2022-10-18T01:39:30.824Z,10.02
2022-10-18T01:42:01.967Z,10.07
2022-10-18T01:44:33.293Z,9.60
2022-10-18T01:47:02.465Z,10.00
2022-10-18T01:49:30.143Z,9.82
2022-10-18T01:51:57.751Z,9.65
2022-10-18T01:54:30.655Z,9.88
2022-10-18T01:57:03.276Z,10.00
2022-10-18T01:59:40.581Z,9.75
2022-10-18T02:02:19.917Z,9.40
2022-10-18T02:04:55.084Z,10.18
2022-10-18T02:07:34.331Z,9.40
2022-10-18T02:10:09.640Z,9.15
2022-10-18T02:12:41.748Z,9.65
2022-10-18T02:15:13.000Z,9.75
2022-10-18T02:17:42.075Z,10.48
2022-10-18T02:21:23.679Z,9.98
2022-10-18T02:23:51.579Z,10.25
2022-10-18T02:26:19.553Z,9.48
2022-10-18T02:28:47.272Z,9.43
2022-10-18T02:31:20.191Z,9.68
2022-10-18T02:33:54.416Z,10.52
2022-10-18T02:36:27.695Z,10.02
2022-10-18T02:38:57.811Z,9.10
2022-10-18T02:41:27.414Z,9.95
2022-10-18T02:43:55.391Z,9.55
2022-10-18T02:46:23.271Z,9.45
2022-10-18T02:48:52.318Z,8.88
2022-10-18T02:51:19.946Z,8.55
2022-10-18T02:53:47.635Z,8.60
2022-10-18T02:56:15.355Z,8.32
2022-10-18T02:58:43.139Z,8.52
2022-10-18T03:01:10.787Z,8.30
2022-10-18T03:03:38.450Z,8.52
2022-10-18T03:06:07.730Z,8.45
2022-10-18T03:08:36.598Z,9.20
2022-10-18T03:11:04.399Z,8.73
2022-10-18T03:13:33.904Z,9.30
2022-10-18T03:16:01.788Z,9.15
2022-10-18T03:18:29.381Z,8.52
2022-10-18T03:20:57.114Z,8.43
2022-10-18T03:23:26.174Z,8.75
2022-10-18T03:25:53.791Z,8.57
2022-10-18T03:28:22.033Z,8.52
2022-10-18T03:30:49.571Z,8.70
2022-10-18T03:33:17.412Z,8.70
2022-10-18T03:35:45.074Z,8.82
2022-10-18T03:38:12.608Z,8.00
2022-10-18T03:40:41.644Z,9.10
2022-10-18T03:43:09.287Z,8.10
2022-10-18T03:45:36.895Z,9.05
2022-10-18T03:48:04.985Z,8.05
2022-10-18T03:50:32.585Z,8.00
2022-10-18T03:53:00.178Z,8.60
2022-10-18T03:55:27.902Z,8.90
2022-10-18T03:57:56.832Z,9.48
2022-10-18T04:00:24.466Z,9.00
2022-10-18T04:02:55.051Z,10.05
2022-10-18T04:05:26.827Z,9.35
2022-10-18T04:07:54.476Z,9.27
2022-10-18T04:10:22.053Z,9.45
2022-10-18T04:12:49.694Z,9.00
2022-10-18T04:15:18.753Z,9.13
2022-10-18T04:17:46.356Z,9.18
2022-10-18T04:20:14.345Z,8.88
2022-10-18T04:22:42.029Z,8.93
2022-10-18T04:25:09.864Z,9.02
2022-10-18T04:27:37.511Z,8.50
2022-10-18T04:30:05.993Z,9.23
2022-10-18T04:32:35.453Z,8.98
2022-10-18T04:35:03.051Z,9.43
2022-10-18T04:37:31.088Z,9.15
2022-10-18T04:39:58.981Z,9.25
2022-10-18T04:42:26.977Z,9.27
2022-10-18T04:44:54.710Z,9.60
2022-10-18T04:47:22.351Z,9.38
2022-10-18T04:49:51.288Z,9.98
2022-10-18T04:52:18.915Z,10.20
2022-10-18T04:54:46.662Z,9.85
2022-10-18T04:57:14.263Z,9.02
2022-10-18T04:59:41.853Z,9.95
2022-10-18T05:02:09.519Z,9.82
2022-10-18T05:04:37.076Z,9.23
2022-10-18T05:07:06.597Z,9.73
2022-10-18T05:09:34.280Z,10.52
2022-10-18T05:12:01.874Z,10.35
2022-10-18T05:14:29.483Z,9.48
2022-10-18T05:16:57.030Z,9.02
2022-10-18T05:19:24.695Z,8.27
2022-10-18T05:21:52.298Z,9.10
2022-10-18T05:24:23.026Z,8.93
2022-10-18T05:26:53.086Z,8.95
2022-10-18T05:29:20.772Z,9.40
2022-10-18T05:31:49.385Z,9.18
2022-10-18T05:34:17.267Z,8.85
2022-10-18T05:36:44.990Z,9.65
2022-10-18T05:39:12.573Z,9.82
2022-10-18T05:41:41.480Z,9.15
2022-10-18T05:44:09.136Z,9.07
2022-10-18T05:46:36.881Z,9.60
2022-10-18T05:49:04.463Z,10.13
2022-10-18T05:51:32.231Z,9.60
2022-10-18T05:54:00.655Z,10.65
2022-10-18T05:56:28.330Z,9.98
2022-10-18T05:58:57.985Z,9.85
2022-10-18T06:01:25.627Z,10.07
2022-10-18T06:03:53.176Z,9.48
2022-10-18T06:06:22.342Z,9.43
2022-10-18T06:08:50.675Z,8.50
2022-10-18T06:11:20.384Z,9.65
2022-10-18T06:13:49.795Z,9.40
2022-10-18T06:16:21.394Z,9.70
2022-10-18T06:18:49.855Z,9.77
2022-10-18T06:21:17.555Z,10.18
2022-10-18T06:23:48.859Z,9.95
2022-10-18T06:26:16.424Z,9.57
2022-10-18T06:28:44.395Z,9.70
2022-10-18T06:31:13.824Z,10.43
2022-10-18T06:33:42.893Z,12.52
2022-10-18T06:36:13.303Z,12.68
2022-10-18T06:38:41.500Z,12.38
2022-10-18T06:41:09.831Z,11.43
2022-10-18T06:43:37.646Z,10.63
2022-10-18T06:46:07.647Z,10.35
2022-10-18T06:48:36.004Z,10.63
2022-10-18T06:51:06.747Z,9.57
2022-10-18T06:53:40.807Z,10.32
2022-10-18T06:56:13.603Z,10.18
2022-10-18T06:58:41.519Z,11.70
2022-10-18T07:01:10.773Z,12.35
2022-10-18T07:03:38.467Z,12.57
2022-10-18T07:06:09.490Z,12.32
2022-10-18T07:08:37.780Z,12.10
2022-10-18T07:11:05.804Z,12.07
2022-10-18T07:13:34.171Z,11.88
2022-10-18T07:16:03.258Z,11.82
2022-10-18T07:18:30.910Z,11.95
2022-10-18T07:20:58.465Z,12.73
2022-10-18T07:23:27.446Z,12.20
2022-10-18T07:25:54.981Z,12.90
2022-10-18T07:28:22.631Z,12.30
2022-10-18T07:30:50.311Z,12.35
2022-10-18T07:33:17.892Z,12.45
2022-10-18T07:35:45.468Z,12.93
2022-10-18T07:38:13.062Z,13.02
2022-10-18T07:40:42.045Z,13.65
2022-10-18T07:43:12.158Z,13.35
2022-10-18T07:45:40.093Z,14.43
2022-10-18T07:48:07.950Z,14.90
2022-10-18T07:50:36.008Z,15.25
2022-10-18T07:53:03.550Z,17.05
2022-10-18T07:55:31.297Z,18.10
2022-10-18T07:58:01.227Z,20.02
2022-10-18T08:00:28.857Z,20.35
2022-10-18T08:02:56.902Z,21.52
2022-10-18T08:05:24.762Z,22.33
2022-10-18T08:07:52.565Z,23.27
2022-10-18T08:10:20.717Z,23.20
2022-10-18T08:12:48.328Z,24.15
2022-10-18T08:15:17.612Z,23.65
2022-10-18T08:17:45.262Z,23.75
2022-10-18T08:20:29.948Z,23.75
2022-10-18T08:23:00.338Z,23.02
2022-10-18T08:25:28.852Z,22.95
2022-10-18T08:27:56.591Z,25.35
2022-10-18T08:30:25.595Z,24.08
2022-10-18T08:32:53.485Z,24.77
2022-10-18T08:35:21.159Z,23.67
2022-10-18T08:37:48.769Z,23.23
2022-10-18T08:40:17.265Z,22.98
2022-10-18T08:43:07.242Z,23.33
2022-10-18T08:45:42.992Z,21.65
2022-10-18T08:48:21.796Z,23.95
2022-10-18T08:50:51.380Z,22.92
2022-10-18T08:53:25.366Z,21.73
2022-10-18T08:55:58.491Z,22.80
2022-10-18T08:58:27.811Z,23.65
2022-10-18T09:01:03.894Z,22.13
2022-10-18T09:03:49.153Z,21.50
2022-10-18T09:06:23.621Z,21.15
2022-10-18T09:09:02.797Z,22.35
2022-10-18T09:11:48.216Z,22.08
2022-10-18T09:14:40.455Z,21.40
2022-10-18T09:22:44.820Z,24.40
2022-10-18T09:25:20.124Z,22.58
2022-10-18T09:27:53.862Z,21.38
2022-10-18T09:30:33.220Z,22.27
2022-10-18T09:33:14.577Z,23.27
2022-10-18T09:35:48.746Z,21.40
2022-10-18T09:38:22.291Z,22.38
2022-10-18T09:40:55.973Z,22.05
2022-10-18T09:43:26.788Z,22.33
2022-10-18T09:45:56.571Z,20.55
2022-10-18T09:48:29.875Z,21.08
2022-10-18T09:51:01.948Z,19.90
2022-10-18T09:53:37.593Z,22.10
2022-10-18T09:56:09.449Z,20.83
2022-10-18T10:01:09.843Z,20.73
2022-10-18T10:03:38.759Z,19.27
2022-10-18T10:06:17.945Z,17.38
2022-10-18T10:08:49.833Z,16.35
2022-10-18T10:14:07.972Z,14.45
2022-10-18T10:16:44.657Z,14.88
2022-10-18T10:19:24.337Z,13.73
2022-10-18T10:21:55.952Z,13.90
2022-10-18T10:24:30.399Z,13.50
2022-10-18T10:27:07.852Z,13.77
2022-10-18T10:29:51.609Z,13.25
2022-10-18T10:32:21.563Z,12.55
2022-10-18T10:34:51.116Z,12.77
2022-10-18T10:37:27.810Z,12.25
2022-10-18T10:40:23.104Z,12.95
2022-10-18T10:43:12.727Z,13.00
2022-10-18T10:45:59.343Z,11.75
2022-10-18T10:48:33.141Z,11.07
2022-10-18T10:51:05.999Z,10.10
2022-10-18T10:53:39.192Z,9.95
2022-10-18T10:56:15.834Z,9.85
2022-10-18T10:58:44.142Z,9.63
2022-10-18T11:01:21.473Z,9.02
2022-10-18T11:03:50.779Z,9.25
2022-10-18T11:06:43.112Z,10.20
2022-10-18T11:09:23.817Z,10.07
2022-10-18T11:12:03.137Z,9.98
2022-10-18T11:14:37.326Z,10.23
2022-10-18T11:17:13.073Z,11.98
2022-10-18T11:20:05.402Z,10.65
2022-10-18T11:22:40.826Z,10.23
2022-10-18T11:25:14.106Z,10.68
2022-10-18T11:27:44.777Z,11.45
2022-10-18T11:30:38.180Z,11.00
2022-10-18T11:33:19.835Z,10.40
2022-10-18T11:35:54.215Z,9.95
2022-10-18T11:38:41.130Z,9.18
2022-10-18T11:41:22.569Z,9.18
2022-10-18T11:44:02.654Z,8.02
2022-10-18T11:46:46.219Z,7.70
2022-10-18T11:49:28.576Z,6.35
2022-10-18T11:52:08.809Z,6.80
2022-10-18T11:54:58.564Z,6.72
2022-10-18T11:57:38.281Z,6.95
2022-10-18T12:00:20.184Z,6.28
2022-10-18T12:03:12.830Z,6.22
2022-10-18T12:05:44.279Z,6.30
2022-10-18T12:08:15.710Z,5.63
2022-10-18T12:11:03.940Z,6.38
2022-10-18T12:13:38.160Z,6.00
2022-10-18T12:16:08.945Z,5.70
2022-10-18T12:18:42.745Z,5.55
2022-10-18T12:21:14.036Z,5.40
2022-10-18T12:23:47.591Z,5.72
2022-10-18T12:26:17.926Z,5.75
2022-10-18T12:28:55.397Z,5.20
2022-10-18T12:31:29.893Z,5.55
2022-10-18T12:34:01.363Z,5.10
2022-10-18T12:36:45.368Z,4.57
2022-10-18T12:39:29.122Z,5.07
2022-10-18T12:42:19.996Z,4.88
2022-10-18T12:44:48.418Z,4.40
2022-10-18T12:47:23.982Z,4.30
2022-10-18T12:50:00.241Z,4.10
2022-10-18T12:52:29.854Z,4.00
2022-10-18T12:55:27.630Z,3.25
2022-10-18T12:58:07.087Z,3.40
2022-10-18T13:01:08.589Z,2.88
2022-10-18T13:03:52.873Z,2.25
2022-10-18T13:06:21.006Z,2.20
2022-10-18T13:08:51.041Z,2.83
2022-10-18T13:11:35.886Z,2.42
2022-10-18T13:14:26.931Z,2.33
2022-10-18T13:17:02.780Z,2.30
2022-10-18T13:19:40.094Z,2.65
2022-10-18T13:22:30.318Z,2.30
2022-10-18T13:25:04.901Z,2.20
2022-10-18T13:27:43.227Z,2.00
2022-10-18T13:30:32.698Z,2.38
2022-10-18T13:33:10.772Z,2.03
2022-10-18T13:35:54.935Z,2.05
2022-10-18T13:38:51.536Z,2.00
2022-10-18T13:41:21.416Z,2.40
2022-10-18T13:44:13.595Z,1.90
2022-10-18T13:49:37.826Z,2.53
2022-10-18T13:52:14.128Z,1.90
2022-10-18T13:54:58.594Z,2.00
2022-10-18T13:57:44.676Z,1.95
2022-10-18T14:00:32.647Z,2.25
2022-10-18T14:03:51.858Z,1.67
2022-10-18T14:06:17.432Z,1.60
2022-10-18T14:08:48.972Z,1.42
2022-10-18T14:11:28.212Z,1.50
2022-10-18T14:14:03.225Z,1.45
2022-10-18T14:16:38.142Z,1.80
2022-10-18T14:19:18.515Z,1.50
2022-10-18T14:21:55.292Z,1.48
2022-10-18T14:24:25.639Z,1.40
2022-10-18T14:27:18.195Z,1.80
2022-10-18T14:29:45.905Z,1.63
2022-10-18T14:32:24.959Z,1.70
2022-10-18T14:34:53.891Z,1.40
2022-10-18T14:37:29.957Z,1.40
2022-10-18T14:39:57.740Z,1.80
2022-10-18T14:42:27.112Z,1.38
2022-10-18T14:44:56.464Z,1.27
2022-10-18T14:47:26.028Z,1.42
2022-10-18T14:49:57.571Z,1.38
2022-10-18T14:52:32.874Z,1.50
2022-10-18T14:55:03.267Z,1.27
2022-10-18T14:57:34.365Z,1.40
2022-10-18T15:00:04.585Z,1.40
2022-10-18T15:02:36.375Z,1.35
2022-10-18T15:05:09.090Z,1.55
2022-10-18T15:07:38.458Z,1.50
2022-10-18T15:10:07.538Z,1.40
2022-10-18T15:12:41.265Z,1.40
2022-10-18T15:15:28.049Z,1.38
2022-10-18T15:20:26.283Z,1.50
2022-10-18T15:22:56.139Z,1.38
2022-10-18T15:25:31.514Z,1.33
2022-10-18T15:28:01.155Z,1.50
2022-10-18T15:30:31.256Z,1.30
2022-10-18T15:33:00.821Z,1.40
2022-10-18T15:35:30.552Z,1.40
2022-10-18T15:38:03.352Z,1.20
2022-10-18T15:40:34.988Z,1.42
2022-10-18T15:43:05.732Z,1.38
2022-10-18T15:45:39.266Z,1.40
2022-10-18T15:48:24.291Z,1.30
2022-10-18T15:50:53.225Z,1.45
2022-10-18T15:53:33.138Z,1.42
2022-10-18T15:56:03.489Z,1.60
2022-10-18T15:58:38.978Z,1.40
2022-10-18T16:01:15.200Z,1.55
2022-10-18T16:03:44.202Z,1.40
2022-10-18T16:06:15.898Z,1.40
2022-10-18T16:08:49.070Z,1.40
2022-10-18T16:11:18.706Z,1.50
2022-10-18T16:13:46.807Z,1.50
2022-10-18T16:16:17.899Z,1.58
2022-10-18T16:18:45.706Z,1.40
2022-10-18T16:21:19.434Z,1.73
2022-10-18T16:23:48.934Z,1.50
2022-10-18T16:26:17.900Z,1.70
2022-10-18T16:28:46.333Z,1.50
2022-10-18T16:31:18.252Z,1.40
2022-10-18T16:36:17.474Z,1.80
2022-10-18T16:38:46.022Z,2.08
2022-10-18T16:41:15.830Z,2.28
2022-10-18T16:43:44.676Z,1.92
2022-10-18T16:46:15.980Z,2.10
2022-10-18T16:48:44.076Z,2.08
2022-10-18T16:51:12.444Z,1.65
2022-10-18T16:53:40.552Z,1.80
2022-10-18T16:56:14.378Z,1.83
2022-10-18T16:58:44.433Z,1.70
2022-10-18T17:01:13.087Z,2.10
2022-10-18T17:03:42.250Z,2.05
2022-10-18T17:06:15.803Z,1.52
2022-10-18T17:08:43.516Z,1.70
2022-10-18T17:11:12.446Z,1.50
2022-10-18T17:13:40.088Z,1.40
2022-10-18T17:16:22.137Z,1.33
2022-10-18T17:21:17.340Z,1.63
2022-10-18T17:23:44.875Z,1.70
2022-10-18T17:26:28.272Z,1.42
2022-10-18T17:28:59.530Z,1.30
2022-10-18T17:31:29.246Z,1.40
2022-10-18T17:33:58.368Z,1.85
2022-10-18T17:36:26.773Z,1.40
2022-10-18T17:38:55.080Z,1.42
2022-10-18T17:41:22.881Z,1.80
2022-10-18T17:43:50.927Z,1.50
2022-10-18T17:46:19.441Z,1.50
2022-10-18T17:48:48.513Z,1.50
2022-10-18T17:51:18.258Z,1.35
2022-10-18T17:53:46.395Z,1.50
2022-10-18T17:56:15.191Z,1.50
2022-10-18T17:58:44.091Z,1.30
2022-10-18T18:01:12.957Z,1.60
2022-10-18T18:03:41.682Z,1.50
2022-10-18T18:06:18.397Z,1.52
2022-10-18T18:08:47.164Z,2.00
2022-10-18T18:11:15.303Z,1.40
2022-10-18T18:13:43.011Z,1.92
2022-10-18T18:16:13.094Z,1.63
2022-10-18T18:18:40.868Z,1.55
2022-10-18T18:21:08.887Z,1.80
2022-10-18T18:23:37.913Z,2.00
2022-10-18T18:26:05.732Z,1.90
2022-10-18T18:28:33.365Z,1.65
2022-10-18T18:31:01.466Z,1.80
2022-10-18T18:33:29.107Z,1.77
2022-10-18T18:35:57.359Z,1.85
2022-10-18T18:38:25.031Z,1.80
2022-10-18T18:41:05.400Z,2.00
2022-10-18T18:43:33.054Z,1.85
2022-10-18T18:46:00.835Z,1.70
2022-10-18T18:48:29.440Z,2.17
2022-10-18T18:50:57.087Z,2.53
2022-10-18T18:53:28.563Z,3.17
2022-10-18T18:56:03.796Z,2.60
2022-10-18T18:58:31.934Z,2.63
2022-10-18T19:00:59.603Z,2.70
2022-10-18T19:03:27.296Z,2.38
2022-10-18T19:06:03.636Z,2.20
2022-10-18T19:08:31.264Z,2.47
2022-10-18T19:10:58.790Z,2.75
2022-10-18T19:13:27.976Z,3.17
2022-10-18T19:16:11.462Z,2.88
2022-10-18T19:18:39.165Z,3.00
2022-10-18T19:21:07.056Z,3.80
2022-10-18T19:23:34.632Z,3.40
2022-10-18T19:26:11.060Z,2.80
2022-10-18T19:28:40.198Z,2.58
2022-10-18T19:31:07.950Z,2.00
2022-10-18T19:33:48.073Z,2.00
2022-10-18T19:36:16.585Z,2.40
2022-10-18T19:38:44.280Z,2.55
2022-10-18T19:41:11.976Z,2.13
2022-10-18T19:43:41.096Z,2.33
2022-10-18T19:46:08.842Z,2.40
2022-10-18T19:48:36.376Z,2.53
2022-10-18T19:51:09.649Z,2.40
2022-10-18T19:53:38.348Z,2.15
2022-10-18T19:56:09.281Z,2.22
2022-10-18T19:58:37.393Z,2.13
2022-10-18T20:01:06.458Z,2.53
2022-10-18T20:03:34.119Z,2.08
2022-10-18T20:06:03.366Z,2.50
2022-10-18T20:08:33.424Z,2.25
2022-10-18T20:11:02.486Z,2.50
2022-10-18T20:13:30.028Z,2.33
2022-10-18T20:15:57.998Z,2.63
2022-10-18T20:18:27.075Z,2.75
2022-10-18T20:20:54.909Z,2.72
2022-10-18T20:23:22.866Z,2.70
2022-10-18T20:25:58.261Z,2.60
2022-10-18T20:28:26.342Z,3.25
2022-10-18T20:31:05.141Z,2.38
2022-10-18T20:33:36.918Z,2.75
2022-10-18T20:36:07.036Z,2.60
2022-10-18T20:38:35.486Z,2.50
2022-10-18T20:41:05.011Z,2.67
2022-10-18T20:43:33.247Z,2.78
2022-10-18T20:46:01.534Z,2.28
2022-10-18T20:48:30.874Z,2.40
2022-10-18T20:51:03.962Z,3.50
2022-10-18T20:53:31.692Z,2.70
2022-10-18T20:56:06.642Z,2.60
2022-10-18T20:58:35.276Z,2.10
2022-10-18T21:01:07.803Z,2.35
2022-10-18T21:03:38.314Z,2.90
2022-10-18T21:06:11.544Z,2.50
2022-10-18T21:08:39.504Z,2.58
2022-10-18T21:11:07.968Z,2.50
2022-10-18T21:13:35.865Z,2.42
2022-10-18T21:16:07.582Z,2.50
2022-10-18T21:18:40.427Z,2.90
2022-10-18T21:23:46.868Z,2.80
2022-10-18T21:26:15.718Z,2.88
2022-10-18T21:28:43.523Z,3.00
2022-10-18T21:31:13.767Z,2.70
2022-10-18T21:33:42.020Z,2.85
2022-10-18T21:36:09.659Z,3.22
2022-10-18T21:38:39.089Z,2.88
2022-10-18T21:41:11.158Z,3.28
2022-10-18T21:43:41.716Z,3.05
2022-10-18T21:46:09.962Z,2.70
2022-10-18T21:48:38.583Z,3.13
2022-10-18T21:51:08.402Z,3.33
2022-10-18T21:53:38.212Z,3.40
2022-10-18T21:56:07.690Z,2.90
2022-10-18T21:58:35.899Z,2.60
2022-10-18T22:01:08.256Z,2.40
2022-10-18T22:03:36.406Z,2.80
2022-10-18T22:06:07.552Z,2.85
2022-10-18T22:08:35.732Z,3.40
2022-10-18T22:11:05.166Z,3.33
2022-10-18T22:13:32.978Z,3.17
2022-10-18T22:16:01.875Z,2.97
2022-10-18T22:18:30.294Z,2.80
2022-10-18T22:21:00.083Z,3.15
2022-10-18T22:23:32.839Z,3.15
2022-10-18T22:26:05.085Z,2.65
2022-10-18T22:28:32.808Z,3.03
2022-10-18T22:31:00.625Z,3.17
2022-10-18T22:33:28.399Z,3.50
2022-10-18T22:35:56.222Z,3.10
2022-10-18T22:38:23.915Z,3.03
2022-10-18T22:40:51.767Z,2.90
2022-10-18T22:43:20.667Z,3.50
2022-10-18T22:45:48.352Z,3.35
2022-10-18T22:48:15.963Z,3.47
2022-10-18T22:50:43.586Z,3.97
2022-10-18T22:53:11.357Z,3.78
2022-10-18T22:55:38.966Z,4.10
2022-10-18T22:58:06.549Z,3.92
2022-10-18T23:00:35.665Z,4.20
2022-10-18T23:03:03.613Z,3.33
2022-10-18T23:05:31.335Z,3.38
2022-10-18T23:07:59.428Z,3.40
2022-10-18T23:10:27.066Z,3.30
2022-10-18T23:12:54.700Z,3.60
2022-10-18T23:15:22.343Z,3.47
2022-10-18T23:17:54.480Z,3.35
2022-10-18T23:22:49.610Z,3.00
2022-10-18T23:25:17.511Z,2.88
2022-10-18T23:27:45.307Z,2.80
2022-10-18T23:30:13.045Z,3.50
2022-10-18T23:32:40.687Z,2.92
2022-10-18T23:35:10.112Z,2.40
2022-10-18T23:37:37.895Z,2.80
2022-10-18T23:40:06.340Z,3.20
2022-10-18T23:42:33.941Z,3.00
2022-10-18T23:45:01.572Z,3.13
2022-10-18T23:47:29.557Z,2.70
2022-10-18T23:49:58.764Z,2.95
2022-10-18T23:52:27.844Z,2.72
2022-10-18T23:54:55.466Z,2.20
2022-10-18T23:57:23.088Z,2.47
2022-10-18T23:59:50.762Z,2.65
